sensor_id;sensor_type;location;lat;lon;timestamp;temperature;humidity
69436;SHT31;56625;54.322;18.582;2023-04-03T00:01:22;2.59;66.97
69436;SHT31;56625;54.322;18.582;2023-04-03T00:03:50;2.58;66.78
69436;SHT31;56625;54.322;18.582;2023-04-03T00:06:19;2.55;65.64
69436;SHT31;56625;54.322;18.582;2023-04-03T00:08:47;2.55;64.89
69436;SHT31;56625;54.322;18.582;2023-04-03T00:11:15;2.57;64.49
69436;SHT31;56625;54.322;18.582;2023-04-03T00:13:43;2.58;65.13
69436;SHT31;56625;54.322;18.582;2023-04-03T00:16:12;2.59;65.29
69436;SHT31;56625;54.322;18.582;2023-04-03T00:18:40;2.58;64.81
69436;SHT31;56625;54.322;18.582;2023-04-03T00:21:08;2.56;63.04
69436;SHT31;56625;54.322;18.582;2023-04-03T00:23:40;2.57;62.99
69436;SHT31;56625;54.322;18.582;2023-04-03T00:26:07;2.56;62.78
69436;SHT31;56625;54.322;18.582;2023-04-03T00:28:35;2.56;62.88
69436;SHT31;56625;54.322;18.582;2023-04-03T00:31:03;2.56;63.10
69436;SHT31;56625;54.322;18.582;2023-04-03T00:33:31;2.55;63.16
69436;SHT31;56625;54.322;18.582;2023-04-03T00:35:59;2.56;62.69
69436;SHT31;56625;54.322;18.582;2023-04-03T00:38:34;2.53;62.37
69436;SHT31;56625;54.322;18.582;2023-04-03T00:41:02;2.53;61.80
69436;SHT31;56625;54.322;18.582;2023-04-03T00:43:31;2.52;61.89
69436;SHT31;56625;54.322;18.582;2023-04-03T00:45:59;2.52;61.64
69436;SHT31;56625;54.322;18.582;2023-04-03T00:48:32;2.52;61.92
69436;SHT31;56625;54.322;18.582;2023-04-03T00:51:16;2.53;62.64
69436;SHT31;56625;54.322;18.582;2023-04-03T00:53:52;2.52;62.47
69436;SHT31;56625;54.322;18.582;2023-04-03T00:56:26;2.51;62.89
69436;SHT31;56625;54.322;18.582;2023-04-03T00:59:04;2.50;62.57
69436;SHT31;56625;54.322;18.582;2023-04-03T01:01:37;2.49;62.41
69436;SHT31;56625;54.322;18.582;2023-04-03T01:04:24;2.47;62.39
69436;SHT31;56625;54.322;18.582;2023-04-03T01:07:02;2.45;62.17
69436;SHT31;56625;54.322;18.582;2023-04-03T01:09:35;2.44;61.87
69436;SHT31;56625;54.322;18.582;2023-04-03T01:12:24;2.42;60.91
69436;SHT31;56625;54.322;18.582;2023-04-03T01:15:11;2.39;60.29
69436;SHT31;56625;54.322;18.582;2023-04-03T01:17:47;2.37;59.68
69436;SHT31;56625;54.322;18.582;2023-04-03T01:25:38;2.28;60.47
69436;SHT31;56625;54.322;18.582;2023-04-03T01:28:26;2.25;60.36
69436;SHT31;56625;54.322;18.582;2023-04-03T01:33:53;2.23;60.50
69436;SHT31;56625;54.322;18.582;2023-04-03T01:36:24;2.22;60.70
69436;SHT31;56625;54.322;18.582;2023-04-03T01:38:58;2.19;60.65
69436;SHT31;56625;54.322;18.582;2023-04-03T01:41:27;2.18;60.30
69436;SHT31;56625;54.322;18.582;2023-04-03T01:43:56;2.16;60.04
69436;SHT31;56625;54.322;18.582;2023-04-03T01:46:24;2.15;60.18
69436;SHT31;56625;54.322;18.582;2023-04-03T01:48:52;2.13;59.13
69436;SHT31;56625;54.322;18.582;2023-04-03T01:51:20;2.12;59.04
69436;SHT31;56625;54.322;18.582;2023-04-03T01:53:49;2.10;58.30
69436;SHT31;56625;54.322;18.582;2023-04-03T01:56:16;2.09;58.21
69436;SHT31;56625;54.322;18.582;2023-04-03T01:58:44;2.07;58.53
69436;SHT31;56625;54.322;18.582;2023-04-03T02:01:12;2.07;58.85
69436;SHT31;56625;54.322;18.582;2023-04-03T02:03:40;2.07;59.37
69436;SHT31;56625;54.322;18.582;2023-04-03T02:06:08;2.07;59.73
69436;SHT31;56625;54.322;18.582;2023-04-03T02:08:39;2.09;60.21
69436;SHT31;56625;54.322;18.582;2023-04-03T02:11:07;2.09;60.17
69436;SHT31;56625;54.322;18.582;2023-04-03T02:13:35;2.09;60.05
69436;SHT31;56625;54.322;18.582;2023-04-03T02:16:07;2.09;60.37
69436;SHT31;56625;54.322;18.582;2023-04-03T02:18:37;2.07;60.00
69436;SHT31;56625;54.322;18.582;2023-04-03T02:21:05;2.08;60.02
69436;SHT31;56625;54.322;18.582;2023-04-03T02:23:33;2.07;59.92
69436;SHT31;56625;54.322;18.582;2023-04-03T02:26:05;2.07;59.88
69436;SHT31;56625;54.322;18.582;2023-04-03T02:28:36;2.07;60.02
69436;SHT31;56625;54.322;18.582;2023-04-03T02:31:04;2.08;60.05
69436;SHT31;56625;54.322;18.582;2023-04-03T02:33:36;2.07;59.44
69436;SHT31;56625;54.322;18.582;2023-04-03T02:36:05;2.06;57.98
69436;SHT31;56625;54.322;18.582;2023-04-03T02:38:34;2.06;56.00
69436;SHT31;56625;54.322;18.582;2023-04-03T02:41:05;2.05;54.57
69436;SHT31;56625;54.322;18.582;2023-04-03T02:43:36;2.05;54.25
69436;SHT31;56625;54.322;18.582;2023-04-03T02:46:05;2.06;54.91
69436;SHT31;56625;54.322;18.582;2023-04-03T02:48:34;2.08;54.30
69436;SHT31;56625;54.322;18.582;2023-04-03T02:51:02;2.09;52.92
69436;SHT31;56625;54.322;18.582;2023-04-03T02:53:30;2.11;52.17
69436;SHT31;56625;54.322;18.582;2023-04-03T02:55:58;2.12;53.12
69436;SHT31;56625;54.322;18.582;2023-04-03T02:58:26;2.12;52.57
69436;SHT31;56625;54.322;18.582;2023-04-03T03:00:53;2.14;52.49
69436;SHT31;56625;54.322;18.582;2023-04-03T03:03:21;2.14;52.70
69436;SHT31;56625;54.322;18.582;2023-04-03T03:05:49;2.14;52.66
69436;SHT31;56625;54.322;18.582;2023-04-03T03:08:17;2.13;52.63
69436;SHT31;56625;54.322;18.582;2023-04-03T03:10:47;2.14;52.42
69436;SHT31;56625;54.322;18.582;2023-04-03T03:13:15;2.15;53.48
69436;SHT31;56625;54.322;18.582;2023-04-03T03:15:43;2.16;54.01
69436;SHT31;56625;54.322;18.582;2023-04-03T03:18:11;2.16;53.98
69436;SHT31;56625;54.322;18.582;2023-04-03T03:20:38;2.16;54.20
69436;SHT31;56625;54.322;18.582;2023-04-03T03:23:06;2.16;54.21
69436;SHT31;56625;54.322;18.582;2023-04-03T03:25:37;2.16;54.45
69436;SHT31;56625;54.322;18.582;2023-04-03T03:28:09;2.16;55.05
69436;SHT31;56625;54.322;18.582;2023-04-03T03:30:37;2.15;54.01
69436;SHT31;56625;54.322;18.582;2023-04-03T03:33:05;2.16;53.87
69436;SHT31;56625;54.322;18.582;2023-04-03T03:35:32;2.17;54.44
69436;SHT31;56625;54.322;18.582;2023-04-03T03:38:00;2.17;54.77
69436;SHT31;56625;54.322;18.582;2023-04-03T03:40:28;2.17;55.12
69436;SHT31;56625;54.322;18.582;2023-04-03T03:42:56;2.16;54.19
69436;SHT31;56625;54.322;18.582;2023-04-03T03:45:24;2.17;53.73
69436;SHT31;56625;54.322;18.582;2023-04-03T03:47:52;2.17;53.50
69436;SHT31;56625;54.322;18.582;2023-04-03T03:50:20;2.17;53.51
69436;SHT31;56625;54.322;18.582;2023-04-03T03:52:48;2.15;51.74
69436;SHT31;56625;54.322;18.582;2023-04-03T03:55:16;2.13;51.83
69436;SHT31;56625;54.322;18.582;2023-04-03T03:57:44;2.13;51.75
69436;SHT31;56625;54.322;18.582;2023-04-03T04:00:12;2.13;52.11
69436;SHT31;56625;54.322;18.582;2023-04-03T04:02:40;2.12;51.99
69436;SHT31;56625;54.322;18.582;2023-04-03T04:05:08;2.11;52.53
69436;SHT31;56625;54.322;18.582;2023-04-03T04:07:37;2.10;52.66
69436;SHT31;56625;54.322;18.582;2023-04-03T04:10:05;2.10;52.77
69436;SHT31;56625;54.322;18.582;2023-04-03T04:12:33;2.10;53.25
69436;SHT31;56625;54.322;18.582;2023-04-03T04:15:03;2.09;52.69
69436;SHT31;56625;54.322;18.582;2023-04-03T04:17:31;2.08;52.96
69436;SHT31;56625;54.322;18.582;2023-04-03T04:19:59;2.08;53.24
69436;SHT31;56625;54.322;18.582;2023-04-03T04:22:27;2.07;53.14
69436;SHT31;56625;54.322;18.582;2023-04-03T04:24:54;2.06;52.90
69436;SHT31;56625;54.322;18.582;2023-04-03T04:27:22;2.04;51.96
69436;SHT31;56625;54.322;18.582;2023-04-03T04:29:50;2.02;51.19
69436;SHT31;56625;54.322;18.582;2023-04-03T04:32:18;2.01;51.60
69436;SHT31;56625;54.322;18.582;2023-04-03T04:34:46;2.01;52.08
69436;SHT31;56625;54.322;18.582;2023-04-03T04:37:14;2.00;52.48
69436;SHT31;56625;54.322;18.582;2023-04-03T04:39:41;2.00;52.64
69436;SHT31;56625;54.322;18.582;2023-04-03T04:42:09;2.00;52.04
69436;SHT31;56625;54.322;18.582;2023-04-03T04:44:43;2.00;52.28
69436;SHT31;56625;54.322;18.582;2023-04-03T04:47:10;2.01;52.51
69436;SHT31;56625;54.322;18.582;2023-04-03T04:49:38;1.99;52.56
69436;SHT31;56625;54.322;18.582;2023-04-03T04:52:06;2.00;52.67
69436;SHT31;56625;54.322;18.582;2023-04-03T04:54:34;2.01;52.98
69436;SHT31;56625;54.322;18.582;2023-04-03T04:57:02;2.02;53.34
69436;SHT31;56625;54.322;18.582;2023-04-03T04:59:30;2.04;53.32
69436;SHT31;56625;54.322;18.582;2023-04-03T05:01:58;2.05;53.40
69436;SHT31;56625;54.322;18.582;2023-04-03T05:04:26;2.07;53.24
69436;SHT31;56625;54.322;18.582;2023-04-03T05:06:54;2.06;52.33
69436;SHT31;56625;54.322;18.582;2023-04-03T05:09:22;2.06;52.16
69436;SHT31;56625;54.322;18.582;2023-04-03T05:11:50;2.07;52.36
69436;SHT31;56625;54.322;18.582;2023-04-03T05:14:17;2.05;51.84
69436;SHT31;56625;54.322;18.582;2023-04-03T05:16:45;2.05;52.13
69436;SHT31;56625;54.322;18.582;2023-04-03T05:19:14;2.07;52.85
69436;SHT31;56625;54.322;18.582;2023-04-03T05:21:42;2.06;52.29
69436;SHT31;56625;54.322;18.582;2023-04-03T05:24:09;2.05;51.81
69436;SHT31;56625;54.322;18.582;2023-04-03T05:26:37;2.05;51.89
69436;SHT31;56625;54.322;18.582;2023-04-03T05:29:06;2.04;51.36
69436;SHT31;56625;54.322;18.582;2023-04-03T05:31:34;2.05;51.76
69436;SHT31;56625;54.322;18.582;2023-04-03T05:34:02;2.05;51.81
69436;SHT31;56625;54.322;18.582;2023-04-03T05:36:30;2.06;51.89
69436;SHT31;56625;54.322;18.582;2023-04-03T05:38:58;2.09;52.28
69436;SHT31;56625;54.322;18.582;2023-04-03T05:41:26;2.10;52.39
69436;SHT31;56625;54.322;18.582;2023-04-03T05:43:54;2.12;53.23
69436;SHT31;56625;54.322;18.582;2023-04-03T05:46:22;2.14;54.12
69436;SHT31;56625;54.322;18.582;2023-04-03T05:48:50;2.16;53.69
69436;SHT31;56625;54.322;18.582;2023-04-03T05:51:22;2.17;53.39
69436;SHT31;56625;54.322;18.582;2023-04-03T05:53:58;2.18;53.12
69436;SHT31;56625;54.322;18.582;2023-04-03T05:56:34;2.16;52.30
69436;SHT31;56625;54.322;18.582;2023-04-03T05:59:02;2.14;52.67
69436;SHT31;56625;54.322;18.582;2023-04-03T06:01:30;2.15;52.59
69436;SHT31;56625;54.322;18.582;2023-04-03T06:03:58;2.16;52.02
69436;SHT31;56625;54.322;18.582;2023-04-03T06:06:41;2.18;51.38
69436;SHT31;56625;54.322;18.582;2023-04-03T06:09:13;2.23;51.20
69436;SHT31;56625;54.322;18.582;2023-04-03T06:11:42;2.30;51.33
69436;SHT31;56625;54.322;18.582;2023-04-03T06:14:11;2.42;52.18
69436;SHT31;56625;54.322;18.582;2023-04-03T06:16:39;2.65;52.60
69436;SHT31;56625;54.322;18.582;2023-04-03T06:19:07;2.82;51.45
69436;SHT31;56625;54.322;18.582;2023-04-03T06:21:36;2.90;50.38
69436;SHT31;56625;54.322;18.582;2023-04-03T06:24:04;2.88;49.85
69436;SHT31;56625;54.322;18.582;2023-04-03T06:26:34;2.84;50.10
69436;SHT31;56625;54.322;18.582;2023-04-03T06:29:02;2.83;50.33
69436;SHT31;56625;54.322;18.582;2023-04-03T06:31:30;2.84;50.63
69436;SHT31;56625;54.322;18.582;2023-04-03T06:33:58;2.85;51.26
69436;SHT31;56625;54.322;18.582;2023-04-03T06:36:26;3.00;51.93
69436;SHT31;56625;54.322;18.582;2023-04-03T06:38:54;3.12;51.81
69436;SHT31;56625;54.322;18.582;2023-04-03T06:41:22;3.23;51.23
69436;SHT31;56625;54.322;18.582;2023-04-03T06:43:50;3.26;50.35
69436;SHT31;56625;54.322;18.582;2023-04-03T06:46:19;3.26;49.20
69436;SHT31;56625;54.322;18.582;2023-04-03T06:48:49;3.21;46.80
69436;SHT31;56625;54.322;18.582;2023-04-03T06:53:56;3.05;48.42
69436;SHT31;56625;54.322;18.582;2023-04-03T06:56:26;3.13;48.98
69436;SHT31;56625;54.322;18.582;2023-04-03T06:58:55;3.11;49.08
69436;SHT31;56625;54.322;18.582;2023-04-03T07:01:25;3.15;48.88
69436;SHT31;56625;54.322;18.582;2023-04-03T07:03:56;3.24;47.43
69436;SHT31;56625;54.322;18.582;2023-04-03T07:06:24;3.13;47.07
69436;SHT31;56625;54.322;18.582;2023-04-03T07:08:55;3.00;47.04
69436;SHT31;56625;54.322;18.582;2023-04-03T07:11:23;3.07;47.78
69436;SHT31;56625;54.322;18.582;2023-04-03T07:13:52;3.17;48.51
69436;SHT31;56625;54.322;18.582;2023-04-03T07:16:21;3.22;48.78
69436;SHT31;56625;54.322;18.582;2023-04-03T07:18:49;3.23;48.87
69436;SHT31;56625;54.322;18.582;2023-04-03T07:21:17;3.19;49.07
69436;SHT31;56625;54.322;18.582;2023-04-03T07:23:45;3.08;48.61
69436;SHT31;56625;54.322;18.582;2023-04-03T07:26:13;2.96;48.11
69436;SHT31;56625;54.322;18.582;2023-04-03T07:28:41;2.95;48.14
69436;SHT31;56625;54.322;18.582;2023-04-03T07:31:10;3.03;48.16
69436;SHT31;56625;54.322;18.582;2023-04-03T07:33:41;3.12;48.90
69436;SHT31;56625;54.322;18.582;2023-04-03T07:36:10;3.27;48.29
69436;SHT31;56625;54.322;18.582;2023-04-03T07:38:43;3.38;48.04
69436;SHT31;56625;54.322;18.582;2023-04-03T07:41:13;3.37;47.96
69436;SHT31;56625;54.322;18.582;2023-04-03T07:43:45;3.33;48.05
69436;SHT31;56625;54.322;18.582;2023-04-03T07:46:14;3.34;48.71
69436;SHT31;56625;54.322;18.582;2023-04-03T07:48:44;3.37;48.98
69436;SHT31;56625;54.322;18.582;2023-04-03T07:51:12;3.58;48.25
69436;SHT31;56625;54.322;18.582;2023-04-03T07:53:41;3.63;48.10
69436;SHT31;56625;54.322;18.582;2023-04-03T07:56:09;3.76;48.39
69436;SHT31;56625;54.322;18.582;2023-04-03T07:58:37;3.73;49.03
69436;SHT31;56625;54.322;18.582;2023-04-03T08:01:05;3.71;49.37
69436;SHT31;56625;54.322;18.582;2023-04-03T08:03:33;3.73;48.73
69436;SHT31;56625;54.322;18.582;2023-04-03T08:06:05;3.79;48.69
69436;SHT31;56625;54.322;18.582;2023-04-03T08:08:42;3.72;48.65
69436;SHT31;56625;54.322;18.582;2023-04-03T08:11:11;3.72;49.14
69436;SHT31;56625;54.322;18.582;2023-04-03T08:13:39;3.69;47.43
69436;SHT31;56625;54.322;18.582;2023-04-03T08:16:12;3.56;47.20
69436;SHT31;56625;54.322;18.582;2023-04-03T08:18:45;3.45;47.76
69436;SHT31;56625;54.322;18.582;2023-04-03T08:21:13;3.45;48.43
69436;SHT31;56625;54.322;18.582;2023-04-03T08:23:41;3.57;49.13
69436;SHT31;56625;54.322;18.582;2023-04-03T08:26:10;3.54;49.11
69436;SHT31;56625;54.322;18.582;2023-04-03T08:28:41;3.51;49.23
69436;SHT31;56625;54.322;18.582;2023-04-03T08:31:10;3.55;49.41
69436;SHT31;56625;54.322;18.582;2023-04-03T08:33:41;3.64;49.42
69436;SHT31;56625;54.322;18.582;2023-04-03T08:36:30;3.74;48.94
69436;SHT31;56625;54.322;18.582;2023-04-03T08:38:58;3.77;49.08
69436;SHT31;56625;54.322;18.582;2023-04-03T08:41:29;3.96;49.54
69436;SHT31;56625;54.322;18.582;2023-04-03T08:47:35;4.12;48.47
69436;SHT31;56625;54.322;18.582;2023-04-03T08:50:17;4.35;47.85
69436;SHT31;56625;54.322;18.582;2023-04-03T08:52:51;4.50;47.36
69436;SHT31;56625;54.322;18.582;2023-04-03T08:55:28;4.37;46.83
69436;SHT31;56625;54.322;18.582;2023-04-03T08:58:05;4.22;48.03
69436;SHT31;56625;54.322;18.582;2023-04-03T09:00:47;4.21;47.58
69436;SHT31;56625;54.322;18.582;2023-04-03T09:03:19;4.14;48.27
69436;SHT31;56625;54.322;18.582;2023-04-03T09:06:05;4.27;49.06
69436;SHT31;56625;54.322;18.582;2023-04-03T09:14:40;4.89;49.02
69436;SHT31;56625;54.322;18.582;2023-04-03T09:24:02;5.47;48.64
69436;SHT31;56625;54.322;18.582;2023-04-03T09:26:36;5.48;48.63
69436;SHT31;56625;54.322;18.582;2023-04-03T09:29:29;5.41;48.44
69436;SHT31;56625;54.322;18.582;2023-04-03T09:32:01;5.37;48.73
69436;SHT31;56625;54.322;18.582;2023-04-03T09:34:46;5.20;48.60
69436;SHT31;56625;54.322;18.582;2023-04-03T09:37:33;5.13;49.76
69436;SHT31;56625;54.322;18.582;2023-04-03T09:42:54;5.49;49.84
69436;SHT31;56625;54.322;18.582;2023-04-03T09:45:30;5.76;49.66
69436;SHT31;56625;54.322;18.582;2023-04-03T09:48:05;5.97;49.97
69436;SHT31;56625;54.322;18.582;2023-04-03T09:58:44;4.62;53.69
69436;SHT31;56625;54.322;18.582;2023-04-03T10:01:56;4.49;54.44
69436;SHT31;56625;54.322;18.582;2023-04-03T10:04:50;4.78;54.57
69436;SHT31;56625;54.322;18.582;2023-04-03T10:07:35;5.28;54.82
69436;SHT31;56625;54.322;18.582;2023-04-03T10:12:42;6.12;51.25
69436;SHT31;56625;54.322;18.582;2023-04-03T10:15:14;6.20;50.66
69436;SHT31;56625;54.322;18.582;2023-04-03T10:17:53;5.97;51.47
69436;SHT31;56625;54.322;18.582;2023-04-03T10:20:50;5.50;53.19
69436;SHT31;56625;54.322;18.582;2023-04-03T10:23:27;5.20;53.79
69436;SHT31;56625;54.322;18.582;2023-04-03T10:32:12;4.52;58.19
69436;SHT31;56625;54.322;18.582;2023-04-03T10:38:03;4.39;58.54
69436;SHT31;56625;54.322;18.582;2023-04-03T10:47:06;4.42;56.60
69436;SHT31;56625;54.322;18.582;2023-04-03T10:50:06;4.51;56.65
69436;SHT31;56625;54.322;18.582;2023-04-03T10:53:11;4.88;56.62
69436;SHT31;56625;54.322;18.582;2023-04-03T10:55:58;4.97;54.20
69436;SHT31;56625;54.322;18.582;2023-04-03T10:58:43;4.74;55.34
69436;SHT31;56625;54.322;18.582;2023-04-03T11:01:19;4.69;56.03
69436;SHT31;56625;54.322;18.582;2023-04-03T11:03:59;4.80;55.78
69436;SHT31;56625;54.322;18.582;2023-04-03T11:06:32;4.75;54.99
69436;SHT31;56625;54.322;18.582;2023-04-03T11:09:25;4.64;55.50
69436;SHT31;56625;54.322;18.582;2023-04-03T11:12:04;4.88;55.21
69436;SHT31;56625;54.322;18.582;2023-04-03T11:14:53;4.94;54.41
69436;SHT31;56625;54.322;18.582;2023-04-03T11:20:06;4.89;53.71
69436;SHT31;56625;54.322;18.582;2023-04-03T11:22:47;4.71;54.08
69436;SHT31;56625;54.322;18.582;2023-04-03T11:25:25;4.76;54.31
69436;SHT31;56625;54.322;18.582;2023-04-03T11:28:02;4.75;53.33
69436;SHT31;56625;54.322;18.582;2023-04-03T11:30:39;4.64;53.46
69436;SHT31;56625;54.322;18.582;2023-04-03T11:36:44;4.76;52.41
69436;SHT31;56625;54.322;18.582;2023-04-03T11:42:14;4.90;53.68
69436;SHT31;56625;54.322;18.582;2023-04-03T11:47:50;5.21;53.23
69436;SHT31;56625;54.322;18.582;2023-04-03T11:55:43;4.65;52.60
69436;SHT31;56625;54.322;18.582;2023-04-03T12:08:45;4.72;48.66
69436;SHT31;56625;54.322;18.582;2023-04-03T12:11:25;4.85;49.08
69436;SHT31;56625;54.322;18.582;2023-04-03T12:16:29;5.37;48.95
69436;SHT31;56625;54.322;18.582;2023-04-03T12:24:27;5.41;47.82
69436;SHT31;56625;54.322;18.582;2023-04-03T12:32:48;5.05;47.87
69436;SHT31;56625;54.322;18.582;2023-04-03T12:36:28;4.85;48.72
69436;SHT31;56625;54.322;18.582;2023-04-03T12:41:38;5.09;49.45
69436;SHT31;56625;54.322;18.582;2023-04-03T12:47:28;4.67;48.96
69436;SHT31;56625;54.322;18.582;2023-04-03T12:50:13;4.36;49.53
69436;SHT31;56625;54.322;18.582;2023-04-03T12:52:52;4.37;50.09
69436;SHT31;56625;54.322;18.582;2023-04-03T12:55:39;4.36;49.39
69436;SHT31;56625;54.322;18.582;2023-04-03T12:58:41;4.53;48.85
69436;SHT31;56625;54.322;18.582;2023-04-03T13:01:02;4.76;49.20
69436;SHT31;56625;54.322;18.582;2023-04-03T13:03:39;4.97;49.06
69436;SHT31;56625;54.322;18.582;2023-04-03T13:06:17;5.01;49.08
69436;SHT31;56625;54.322;18.582;2023-04-03T13:08:50;4.98;50.10
69436;SHT31;56625;54.322;18.582;2023-04-03T13:11:21;5.04;50.75
69436;SHT31;56625;54.322;18.582;2023-04-03T13:14:01;5.24;50.98
69436;SHT31;56625;54.322;18.582;2023-04-03T13:16:41;5.45;49.22
69436;SHT31;56625;54.322;18.582;2023-04-03T13:19:19;5.54;49.14
69436;SHT31;56625;54.322;18.582;2023-04-03T13:21:48;5.57;50.43
69436;SHT31;56625;54.322;18.582;2023-04-03T13:24:20;5.76;50.79
69436;SHT31;56625;54.322;18.582;2023-04-03T13:26:48;5.64;51.82
69436;SHT31;56625;54.322;18.582;2023-04-03T13:29:53;5.11;54.55
69436;SHT31;56625;54.322;18.582;2023-04-03T13:32:23;4.58;54.85
69436;SHT31;56625;54.322;18.582;2023-04-03T13:34:54;4.18;53.46
69436;SHT31;56625;54.322;18.582;2023-04-03T13:37:32;3.89;53.84
69436;SHT31;56625;54.322;18.582;2023-04-03T13:42:35;3.77;53.80
69436;SHT31;56625;54.322;18.582;2023-04-03T13:48:10;4.26;53.25
69436;SHT31;56625;54.322;18.582;2023-04-03T13:53:26;4.26;51.73
69436;SHT31;56625;54.322;18.582;2023-04-03T13:56:08;4.25;52.63
69436;SHT31;56625;54.322;18.582;2023-04-03T14:01:39;4.59;52.42
69436;SHT31;56625;54.322;18.582;2023-04-03T14:04:31;4.55;50.68
69436;SHT31;56625;54.322;18.582;2023-04-03T14:07:14;4.32;50.36
69436;SHT31;56625;54.322;18.582;2023-04-03T14:09:44;4.15;50.89
69436;SHT31;56625;54.322;18.582;2023-04-03T14:12:17;4.04;51.50
69436;SHT31;56625;54.322;18.582;2023-04-03T14:15:03;3.97;52.54
69436;SHT31;56625;54.322;18.582;2023-04-03T14:17:51;3.96;53.38
69436;SHT31;56625;54.322;18.582;2023-04-03T14:20:21;3.87;53.36
69436;SHT31;56625;54.322;18.582;2023-04-03T14:22:53;3.83;53.82
69436;SHT31;56625;54.322;18.582;2023-04-03T14:25:21;3.79;53.75
69436;SHT31;56625;54.322;18.582;2023-04-03T14:27:52;3.69;53.31
69436;SHT31;56625;54.322;18.582;2023-04-03T14:30:32;3.55;53.56
69436;SHT31;56625;54.322;18.582;2023-04-03T14:33:00;3.66;54.07
69436;SHT31;56625;54.322;18.582;2023-04-03T14:35:32;3.91;53.34
69436;SHT31;56625;54.322;18.582;2023-04-03T14:38:00;4.04;50.18
69436;SHT31;56625;54.322;18.582;2023-04-03T14:40:28;4.14;49.73
69436;SHT31;56625;54.322;18.582;2023-04-03T14:42:56;4.33;49.37
69436;SHT31;56625;54.322;18.582;2023-04-03T14:45:24;4.38;48.75
69436;SHT31;56625;54.322;18.582;2023-04-03T14:47:54;4.46;49.30
69436;SHT31;56625;54.322;18.582;2023-04-03T14:50:25;4.64;50.12
69436;SHT31;56625;54.322;18.582;2023-04-03T14:52:56;4.62;51.17
69436;SHT31;56625;54.322;18.582;2023-04-03T14:55:26;4.51;52.56
69436;SHT31;56625;54.322;18.582;2023-04-03T14:57:55;4.44;52.82
69436;SHT31;56625;54.322;18.582;2023-04-03T15:00:23;4.30;51.50
69436;SHT31;56625;54.322;18.582;2023-04-03T15:02:51;4.14;51.36
69436;SHT31;56625;54.322;18.582;2023-04-03T15:05:20;4.04;50.57
69436;SHT31;56625;54.322;18.582;2023-04-03T15:07:58;3.97;50.22
69436;SHT31;56625;54.322;18.582;2023-04-03T15:10:28;3.86;49.84
69436;SHT31;56625;54.322;18.582;2023-04-03T15:12:58;3.88;50.63
69436;SHT31;56625;54.322;18.582;2023-04-03T15:15:28;3.84;50.65
69436;SHT31;56625;54.322;18.582;2023-04-03T15:17:57;3.74;51.25
69436;SHT31;56625;54.322;18.582;2023-04-03T15:20:26;3.64;50.62
69436;SHT31;56625;54.322;18.582;2023-04-03T15:22:58;3.49;49.37
69436;SHT31;56625;54.322;18.582;2023-04-03T15:25:32;3.35;49.34
69436;SHT31;56625;54.322;18.582;2023-04-03T15:28:00;3.31;49.74
69436;SHT31;56625;54.322;18.582;2023-04-03T15:30:28;3.38;50.04
69436;SHT31;56625;54.322;18.582;2023-04-03T15:32:56;3.47;49.91
69436;SHT31;56625;54.322;18.582;2023-04-03T15:35:24;3.52;49.74
69436;SHT31;56625;54.322;18.582;2023-04-03T15:37:52;3.66;50.49
69436;SHT31;56625;54.322;18.582;2023-04-03T15:40:20;3.64;51.22
69436;SHT31;56625;54.322;18.582;2023-04-03T15:42:48;3.53;52.47
69436;SHT31;56625;54.322;18.582;2023-04-03T15:45:18;3.45;53.57
69436;SHT31;56625;54.322;18.582;2023-04-03T15:47:46;3.40;54.49
69436;SHT31;56625;54.322;18.582;2023-04-03T15:50:14;3.38;55.22
69436;SHT31;56625;54.322;18.582;2023-04-03T15:52:43;3.35;56.09
69436;SHT31;56625;54.322;18.582;2023-04-03T15:55:10;3.30;57.07
69436;SHT31;56625;54.322;18.582;2023-04-03T15:57:38;3.29;57.49
69436;SHT31;56625;54.322;18.582;2023-04-03T16:00:12;3.22;59.03
69436;SHT31;56625;54.322;18.582;2023-04-03T16:02:41;3.16;59.69
69436;SHT31;56625;54.322;18.582;2023-04-03T16:05:14;3.16;59.58
69436;SHT31;56625;54.322;18.582;2023-04-03T16:07:52;3.14;59.39
69436;SHT31;56625;54.322;18.582;2023-04-03T16:10:24;3.08;59.59
69436;SHT31;56625;54.322;18.582;2023-04-03T16:12:52;3.03;60.26
69436;SHT31;56625;54.322;18.582;2023-04-03T16:15:23;3.02;60.55
69436;SHT31;56625;54.322;18.582;2023-04-03T16:17:53;3.02;60.73
69436;SHT31;56625;54.322;18.582;2023-04-03T16:20:22;2.99;59.39
69436;SHT31;56625;54.322;18.582;2023-04-03T16:22:51;2.95;57.17
69436;SHT31;56625;54.322;18.582;2023-04-03T16:25:23;2.91;56.08
69436;SHT31;56625;54.322;18.582;2023-04-03T16:27:51;2.88;56.07
69436;SHT31;56625;54.322;18.582;2023-04-03T16:30:22;2.88;55.73
69436;SHT31;56625;54.322;18.582;2023-04-03T16:33:13;2.87;53.56
69436;SHT31;56625;54.322;18.582;2023-04-03T16:35:48;2.84;50.74
69436;SHT31;56625;54.322;18.582;2023-04-03T16:38:18;2.78;50.36
69436;SHT31;56625;54.322;18.582;2023-04-03T16:40:49;2.79;50.89
69436;SHT31;56625;54.322;18.582;2023-04-03T16:43:28;2.75;52.56
69436;SHT31;56625;54.322;18.582;2023-04-03T16:45:56;2.77;53.57
69436;SHT31;56625;54.322;18.582;2023-04-03T16:48:30;2.79;54.88
69436;SHT31;56625;54.322;18.582;2023-04-03T16:50:59;2.79;56.06
69436;SHT31;56625;54.322;18.582;2023-04-03T16:53:34;2.78;55.48
69436;SHT31;56625;54.322;18.582;2023-04-03T16:56:06;2.73;55.02
69436;SHT31;56625;54.322;18.582;2023-04-03T16:58:37;2.69;54.93
69436;SHT31;56625;54.322;18.582;2023-04-03T17:01:14;2.64;54.90
69436;SHT31;56625;54.322;18.582;2023-04-03T17:03:45;2.59;55.04
69436;SHT31;56625;54.322;18.582;2023-04-03T17:06:15;2.54;54.94
69436;SHT31;56625;54.322;18.582;2023-04-03T17:08:48;2.47;54.61
69436;SHT31;56625;54.322;18.582;2023-04-03T17:11:19;2.41;54.27
69436;SHT31;56625;54.322;18.582;2023-04-03T17:13:48;2.38;54.22
69436;SHT31;56625;54.322;18.582;2023-04-03T17:16:17;2.38;54.33
69436;SHT31;56625;54.322;18.582;2023-04-03T17:18:47;2.39;54.26
69436;SHT31;56625;54.322;18.582;2023-04-03T17:21:16;2.39;53.99
69436;SHT31;56625;54.322;18.582;2023-04-03T17:23:49;2.40;54.10
69436;SHT31;56625;54.322;18.582;2023-04-03T17:26:25;2.39;54.39
69436;SHT31;56625;54.322;18.582;2023-04-03T17:28:57;2.40;54.82
69436;SHT31;56625;54.322;18.582;2023-04-03T17:31:26;2.42;55.10
69436;SHT31;56625;54.322;18.582;2023-04-03T17:33:58;2.44;54.66
69436;SHT31;56625;54.322;18.582;2023-04-03T17:36:31;2.45;54.69
69436;SHT31;56625;54.322;18.582;2023-04-03T17:39:01;2.47;54.85
69436;SHT31;56625;54.322;18.582;2023-04-03T17:41:29;2.46;54.62
69436;SHT31;56625;54.322;18.582;2023-04-03T17:43:58;2.47;54.88
69436;SHT31;56625;54.322;18.582;2023-04-03T17:46:26;2.48;54.87
69436;SHT31;56625;54.322;18.582;2023-04-03T17:48:55;2.49;54.82
69436;SHT31;56625;54.322;18.582;2023-04-03T17:51:29;2.49;54.59
69436;SHT31;56625;54.322;18.582;2023-04-03T17:54:01;2.49;55.09
69436;SHT31;56625;54.322;18.582;2023-04-03T17:56:29;2.51;55.39